Time;durP1;ratioP1;P1;durP2;ratioP2;P2;SDS_P1;SDS_P2;PMS_P1;PMS_P2;Temp;Humidity;BMP_temperature;BMP_pressure;BME280_temperature;BME280_humidity;BME280_pressure;Samples;Min_cycle;Max_cycle;Signal;HPM_P1;HPM_P2
2023/06/04 00:02:25;;;;;;;2.33;1.42;;;14.80;99.90;;;;;;4789293;29;37953;-77
2023/06/04 00:04:51;;;;;;;3.85;1.60;;;14.80;25.10;;;;;;4811737;29;39707;-77
2023/06/04 00:07:17;;;;;;;3.00;1.25;;;14.80;99.90;;;;;;4795081;29;38722;-77
2023/06/04 00:09:46;;;;;;;4.85;1.50;;;14.80;99.90;;;;;;4812445;29;35952;-77
2023/06/04 00:12:13;;;;;;;3.90;1.30;;;14.70;1.00;;;;;;4795295;29;37515;-77
2023/06/04 00:14:39;;;;;;;3.72;1.50;;;14.70;99.90;;;;;;4809941;29;38385;-77
2023/06/04 00:17:05;;;;;;;5.75;1.70;;;14.70;1.00;;;;;;4807488;29;37083;-77
2023/06/04 00:19:33;;;;;;;5.13;1.33;;;14.60;1.00;;;;;;4812187;29;37308;-77
2023/06/04 00:22:00;;;;;;;3.00;1.67;;;14.60;1.00;;;;;;4800339;29;39224;-76
2023/06/04 00:24:26;;;;;;;4.05;1.35;;;14.60;99.90;;;;;;4795556;29;38492;-77
2023/06/04 00:26:52;;;;;;;2.75;1.40;;;14.60;99.90;;;;;;4796680;29;38223;-77
2023/06/04 00:29:18;;;;;;;2.47;1.40;;;14.60;1.00;;;;;;4795769;29;35765;-77
2023/06/04 00:31:44;;;;;;;3.60;1.38;;;14.50;1.00;;;;;;4803238;29;39567;-77
2023/06/04 00:34:11;;;;;;;5.10;1.20;;;14.50;1.00;;;;;;4817853;29;39472;-77
2023/06/04 00:36:37;;;;;;;2.03;1.27;;;14.50;99.90;;;;;;4810264;29;37372;-77
2023/06/04 00:39:03;;;;;;;2.25;1.50;;;14.40;1.00;;;;;;4818252;29;37241;-78
2023/06/04 00:41:30;;;;;;;3.47;1.10;;;14.40;1.00;;;;;;4819131;29;37518;-77
2023/06/04 00:43:56;;;;;;;4.25;1.33;;;14.30;99.90;;;;;;4802939;29;38252;-77
2023/06/04 00:46:26;;;;;;;2.70;1.30;;;14.30;1.00;;;;;;4801340;29;37761;-78
2023/06/04 00:48:53;;;;;;;3.53;1.42;;;14.30;99.90;;;;;;4803890;29;37504;-78
2023/06/04 00:51:23;;;;;;;5.40;1.20;;;14.30;1.00;;;;;;4817105;29;39034;-77
2023/06/04 00:53:50;;;;;;;3.53;1.67;;;14.20;99.90;;;;;;4805758;29;37702;-77
2023/06/04 00:56:16;;;;;;;4.68;1.50;;;14.20;1.00;;;;;;4799994;29;38230;-77
2023/06/04 00:58:45;;;;;;;1.42;1.30;;;14.20;99.90;;;;;;4798254;29;36084;-77
2023/06/04 01:03:51;;;;;;;1.92;1.40;;;14.10;1.00;;;;;;4826094;23;20049;-86
2023/06/04 01:06:38;;;;;;;3.20;1.65;;;14.10;1.00;;;;;;4829672;29;37521;-86
2023/06/04 01:09:05;;;;;;;1.55;1.17;;;14.00;1.00;;;;;;4830992;29;37560;-85
2023/06/04 01:11:36;;;;;;;2.85;1.40;;;14.00;1.00;;;;;;4833576;29;38745;-85
2023/06/04 01:14:04;;;;;;;4.93;1.45;;;14.00;1.00;;;;;;4818789;29;38693;-84
2023/06/04 01:16:45;;;;;;;2.78;1.52;;;14.00;1.00;;;;;;4829647;29;41399;-86
2023/06/04 01:19:41;;;;;;;3.65;1.80;;;14.00;1.00;;;;;;4814979;29;38256;-85
2023/06/04 01:22:20;;;;;;;3.65;1.55;;;14.00;1.00;;;;;;4824320;29;38879;-85
2023/06/04 01:24:55;;;;;;;1.92;1.30;;;13.90;1.00;;;;;;4819272;29;38750;-86
2023/06/04 01:27:23;;;;;;;5.38;1.60;;;13.90;1.00;;;;;;4819053;29;38752;-85
2023/06/04 01:29:51;;;;;;;5.97;1.55;;;13.90;1.00;;;;;;4832658;29;36555;-86
2023/06/04 01:32:17;;;;;;;2.63;1.45;;;13.80;1.00;;;;;;4838006;29;38272;-86
2023/06/04 01:34:46;;;;;;;4.35;1.52;;;13.80;99.90;;;;;;4825099;29;37936;-87
2023/06/04 01:37:13;;;;;;;4.28;1.52;;;13.80;1.00;;;;;;4816037;29;37016;-86
2023/06/04 01:39:39;;;;;;;5.38;1.77;;;13.80;1.00;;;;;;4820507;29;35921;-85
2023/06/04 01:42:06;;;;;;;2.95;1.45;;;13.70;1.00;;;;;;4817093;29;37943;-82
2023/06/04 01:44:32;;;;;;;4.03;1.38;;;13.70;1.00;;;;;;4819049;29;38017;-83
2023/06/04 01:46:58;;;;;;;3.00;1.38;;;13.60;1.00;;;;;;4827487;29;38405;-84
2023/06/04 01:49:24;;;;;;;2.13;1.20;;;13.70;1.00;;;;;;4831742;29;37974;-86
2023/06/04 01:51:50;;;;;;;4.70;1.90;;;13.60;99.90;;;;;;4820744;29;37670;-86
2023/06/04 01:54:17;;;;;;;4.03;1.70;;;13.60;99.90;;;;;;4817988;29;37221;-86
2023/06/04 01:56:43;;;;;;;2.80;1.33;;;13.60;1.00;;;;;;4816611;29;38066;-85
2023/06/04 01:59:11;;;;;;;3.65;1.70;;;13.50;1.00;;;;;;4819679;29;35924;-85
2023/06/04 02:01:38;;;;;;;2.92;1.77;;;13.50;1.00;;;;;;4832718;29;37818;-86
2023/06/04 02:04:04;;;;;;;4.28;1.30;;;13.40;1.00;;;;;;4817824;29;37921;-85
2023/06/04 02:06:31;;;;;;;2.35;1.52;;;13.40;1.00;;;;;;4816903;29;38323;-84
2023/06/04 02:08:57;;;;;;;1.77;1.40;;;13.30;1.00;;;;;;4813533;29;38860;-84
2023/06/04 02:11:29;;;;;;;2.13;1.40;;;13.30;1.00;;;;;;4810402;29;38983;-85
2023/06/04 02:13:55;;;;;;;1.77;1.33;;;13.30;1.00;;;;;;4803292;29;37216;-85
2023/06/04 02:16:21;;;;;;;4.28;1.63;;;13.40;99.90;;;;;;4812030;29;36652;-86
2023/06/04 02:18:47;;;;;;;4.05;1.48;;;13.30;1.00;;;;;;4799663;29;36104;-86
2023/06/04 02:21:13;;;;;;;2.30;1.48;;;13.30;1.00;;;;;;4816712;29;38956;-86
2023/06/04 02:23:40;;;;;;;5.13;1.65;;;13.20;1.00;;;;;;4803558;29;37357;-87
2023/06/04 02:26:06;;;;;;;2.47;1.25;;;13.20;1.00;;;;;;4800930;29;37862;-86
2023/06/04 02:28:32;;;;;;;3.63;1.58;;;13.20;1.00;;;;;;4817573;29;35778;-86
2023/06/04 02:30:58;;;;;;;1.85;1.23;;;13.10;1.00;;;;;;4819233;29;38435;-86
2023/06/04 02:33:24;;;;;;;4.15;1.58;;;13.10;1.00;;;;;;4799873;29;37244;-85
2023/06/04 02:35:50;;;;;;;3.15;1.80;;;13.10;1.00;;;;;;4808818;29;38351;-86
2023/06/04 02:38:16;;;;;;;2.97;1.67;;;13.20;1.00;;;;;;4801685;29;35963;-85
2023/06/04 02:40:43;;;;;;;3.25;1.20;;;13.20;1.00;;;;;;4818019;29;39989;-86
2023/06/04 02:43:10;;;;;;;4.97;1.50;;;13.10;1.00;;;;;;4816804;29;37383;-84
2023/06/04 02:45:36;;;;;;;7.15;2.00;;;13.20;1.00;;;;;;4797525;29;36746;-86
2023/06/04 02:48:02;;;;;;;1.85;1.48;;;13.10;1.00;;;;;;4817608;29;36459;-84
2023/06/04 02:50:28;;;;;;;5.13;1.80;;;13.10;1.00;;;;;;4799182;29;37979;-85
2023/06/04 02:52:54;;;;;;;1.95;1.30;;;13.10;1.00;;;;;;4815268;29;38884;-84
2023/06/04 02:55:21;;;;;;;4.05;1.40;;;13.00;1.00;;;;;;4798428;29;37319;-85
2023/06/04 02:57:47;;;;;;;3.03;1.55;;;13.00;99.90;;;;;;4819094;29;37955;-84
2023/06/04 03:00:15;;;;;;;2.95;1.50;;;13.00;99.90;;;;;;4799882;29;39574;-84
2023/06/04 03:02:43;;;;;;;1.65;1.20;;;13.00;1.00;;;;;;4805447;29;37295;-84
2023/06/04 03:05:12;;;;;;;2.88;1.58;;;13.00;99.90;;;;;;4809682;29;39026;-86
2023/06/04 03:07:40;;;;;;;6.15;1.35;;;12.90;99.90;;;;;;4816988;29;36826;-84
2023/06/04 03:10:08;;;;;;;4.03;1.48;;;12.90;99.90;;;;;;4817853;29;38777;-86
2023/06/04 03:12:34;;;;;;;2.97;2.33;;;12.90;99.90;;;;;;4817139;29;37695;-85
2023/06/04 03:15:00;;;;;;;2.95;1.58;;;12.90;38.90;;;;;;4812092;29;38394;-85
2023/06/04 03:17:27;;;;;;;3.35;1.65;;;12.90;99.90;;;;;;4820581;29;36224;-86
2023/06/04 03:19:56;;;;;;;5.43;1.67;;;12.80;99.90;;;;;;4818367;29;39033;-85
2023/06/04 03:22:22;;;;;;;3.58;1.48;;;12.70;99.90;;;;;;4820698;29;39098;-86
2023/06/04 03:24:48;;;;;;;2.95;1.23;;;12.80;99.90;;;;;;4800938;29;38795;-86
2023/06/04 03:27:14;;;;;;;1.70;1.10;;;12.80;99.90;;;;;;4818231;29;36145;-85
2023/06/04 03:29:40;;;;;;;4.13;1.40;;;12.70;99.90;;;;;;4811291;29;38202;-85
2023/06/04 03:32:07;;;;;;;2.47;1.27;;;12.70;99.90;;;;;;4813487;29;39812;-87
2023/06/04 03:34:33;;;;;;;2.03;1.48;;;12.70;1.00;;;;;;4823051;29;36937;-87
2023/06/04 03:36:59;;;;;;;3.28;1.33;;;12.70;1.00;;;;;;4831865;29;35990;-85
2023/06/04 03:39:26;;;;;;;3.13;1.83;;;12.70;1.00;;;;;;4798271;29;39264;-86
2023/06/04 03:41:53;;;;;;;2.35;1.52;;;12.70;99.90;;;;;;4805992;29;37257;-84
2023/06/04 03:44:20;;;;;;;2.20;1.40;;;12.70;99.90;;;;;;4799232;29;38658;-86
2023/06/04 03:46:46;;;;;;;2.63;1.60;;;12.70;99.90;;;;;;4801139;29;37598;-87
2023/06/04 03:49:13;;;;;;;6.38;1.80;;;12.70;99.90;;;;;;4800093;29;38087;-86
2023/06/04 03:51:40;;;;;;;1.73;1.25;;;12.60;99.90;;;;;;4787555;29;38745;-85
2023/06/04 03:54:07;;;;;;;3.85;1.40;;;12.60;99.90;;;;;;4811754;29;39541;-87
2023/06/04 03:56:33;;;;;;;1.52;1.10;;;12.60;99.90;;;;;;4804207;29;36242;-87
2023/06/04 03:59:00;;;;;;;2.72;1.40;;;12.60;99.90;;;;;;4828296;29;39095;-87
2023/06/04 04:01:26;;;;;;;4.68;1.30;;;12.60;99.90;;;;;;4798338;29;38586;-87
2023/06/04 04:03:53;;;;;;;3.45;1.40;;;12.60;1.00;;;;;;4789284;29;37194;-87
2023/06/04 04:06:20;;;;;;;4.03;1.50;;;12.60;99.90;;;;;;4811128;29;36310;-85
2023/06/04 04:08:48;;;;;;;4.22;1.50;;;12.60;99.90;;;;;;4815949;29;38646;-87
2023/06/04 04:11:15;;;;;;;2.90;1.30;;;12.60;99.90;;;;;;4796361;29;37375;-87
2023/06/04 04:13:41;;;;;;;5.18;1.30;;;12.60;99.90;;;;;;4804191;29;37320;-86
2023/06/04 04:16:07;;;;;;;1.83;1.15;;;12.60;1.00;;;;;;4822554;29;38260;-85
2023/06/04 04:18:34;;;;;;;3.05;1.30;;;12.70;1.00;;;;;;4818842;29;37653;-84
2023/06/04 04:21:01;;;;;;;3.50;1.50;;;12.70;99.90;;;;;;4802019;29;39810;-84
2023/06/04 04:23:28;;;;;;;3.65;2.00;;;12.70;1.00;;;;;;4799048;29;47117;-84
2023/06/04 04:25:56;;;;;;;3.17;1.33;;;12.70;1.00;;;;;;4815849;29;36184;-86
2023/06/04 04:28:22;;;;;;;4.53;1.60;;;12.70;1.00;;;;;;4819036;29;38793;-84
2023/06/04 04:30:49;;;;;;;3.53;1.63;;;12.70;99.90;;;;;;4815056;29;38541;-86
2023/06/04 04:33:15;;;;;;;4.20;1.25;;;12.70;1.00;;;;;;4811733;29;39308;-87
2023/06/04 04:35:45;;;;;;;2.90;1.63;;;12.70;1.00;;;;;;4812322;29;36883;-85
2023/06/04 04:38:11;;;;;;;2.55;1.40;;;12.80;1.00;;;;;;4807068;29;38743;-85
2023/06/04 04:40:37;;;;;;;6.00;1.45;;;12.80;1.00;;;;;;4813511;29;36707;-86
2023/06/04 04:43:03;;;;;;;3.42;1.27;;;12.80;1.00;;;;;;4797870;29;36873;-85
2023/06/04 04:45:29;;;;;;;2.60;1.10;;;12.90;10.90;;;;;;4798479;29;36848;-86
2023/06/04 04:47:55;;;;;;;2.78;1.35;;;12.80;1.00;;;;;;4812682;29;37883;-87
2023/06/04 04:50:22;;;;;;;3.30;1.45;;;12.90;1.00;;;;;;4797929;29;38690;-86
2023/06/04 04:52:48;;;;;;;1.40;1.20;;;12.90;1.00;;;;;;4815048;29;38241;-86
2023/06/04 04:55:14;;;;;;;1.70;0.95;;;12.90;99.90;;;;;;4798756;29;36238;-85
2023/06/04 04:57:40;;;;;;;3.08;1.20;;;12.90;93.20;;;;;;4799491;29;37654;-84
2023/06/04 05:00:09;;;;;;;3.13;1.20;;;13.00;99.90;;;;;;4792968;29;37204;-85
2023/06/04 05:02:36;;;;;;;4.07;1.38;;;13.10;1.00;;;;;;4816473;29;37383;-85
2023/06/04 05:05:03;;;;;;;2.92;1.50;;;13.40;1.00;;;;;;4805560;29;36262;-86
2023/06/04 05:07:29;;;;;;;4.15;1.83;;;13.60;99.90;;;;;;4800445;29;46639;-85
2023/06/04 05:09:55;;;;;;;1.52;1.27;;;13.80;1.00;;;;;;4821448;29;37390;-84
2023/06/04 05:12:21;;;;;;;2.05;1.20;;;14.00;1.00;;;;;;4800438;29;36264;-83
2023/06/04 05:14:47;;;;;;;3.58;1.00;;;14.30;1.00;;;;;;4797564;29;37550;-86
2023/06/04 05:17:16;;;;;;;3.17;1.40;;;14.40;99.90;;;;;;4810552;29;37572;-84
2023/06/04 05:19:42;;;;;;;2.17;1.30;;;14.50;1.00;;;;;;4818572;29;37867;-83
2023/06/04 05:22:08;;;;;;;5.78;1.30;;;14.60;1.00;;;;;;4813591;29;39043;-86
2023/06/04 05:24:34;;;;;;;2.45;0.95;;;14.60;99.90;;;;;;4820037;29;35655;-86
2023/06/04 05:27:03;;;;;;;6.55;1.13;;;14.60;1.00;;;;;;4796455;29;37850;-81
2023/06/04 05:29:29;;;;;;;2.13;1.40;;;14.70;99.90;;;;;;4777737;29;47539;-85
2023/06/04 05:31:55;;;;;;;3.00;1.20;;;14.80;99.90;;;;;;4800295;29;38698;-85
2023/06/04 05:34:22;;;;;;;2.95;1.30;;;14.90;99.90;;;;;;4799346;29;38566;-84
2023/06/04 05:36:48;;;;;;;3.08;1.35;;;15.10;99.90;;;;;;4798065;29;37690;-84
2023/06/04 05:39:14;;;;;;;3.25;1.40;;;15.20;99.90;;;;;;4820364;29;38623;-84
2023/06/04 05:41:40;;;;;;;2.30;1.17;;;15.30;1.00;;;;;;4799430;29;38365;-86
2023/06/04 05:44:06;;;;;;;3.17;1.40;;;15.50;99.90;;;;;;4812507;29;37145;-82
2023/06/04 05:46:33;;;;;;;1.60;1.27;;;15.60;1.00;;;;;;4815083;29;39061;-84
2023/06/04 05:48:59;;;;;;;1.80;1.08;;;15.70;99.90;;;;;;4812926;29;39329;-84
2023/06/04 05:51:25;;;;;;;2.03;1.30;;;15.90;1.00;;;;;;4794817;29;37155;-82
2023/06/04 05:53:51;;;;;;;2.13;1.15;;;15.90;1.00;;;;;;4821798;29;38467;-83
2023/06/04 05:56:17;;;;;;;2.80;1.45;;;16.00;1.00;;;;;;4796796;29;39383;-82
2023/06/04 05:58:43;;;;;;;2.33;1.40;;;16.10;1.00;;;;;;4799887;29;37853;-84
2023/06/04 06:01:09;;;;;;;1.80;1.10;;;16.30;1.00;;;;;;4813773;29;36901;-85
2023/06/04 06:03:36;;;;;;;2.17;1.30;;;16.50;1.00;;;;;;4813023;29;36751;-87
2023/06/04 06:06:02;;;;;;;3.25;1.52;;;16.60;1.00;;;;;;4811589;29;37734;-88
2023/06/04 06:08:28;;;;;;;5.88;1.20;;;16.70;1.00;;;;;;4817534;29;38136;-89
2023/06/04 06:10:55;;;;;;;2.25;0.95;;;16.80;1.00;;;;;;4801420;29;38883;-87
2023/06/04 06:13:21;;;;;;;3.25;1.30;;;16.80;99.90;;;;;;4814818;29;37113;-87
2023/06/04 06:15:48;;;;;;;2.08;1.10;;;16.80;99.90;;;;;;4821620;29;37619;-84
2023/06/04 06:18:17;;;;;;;1.45;1.20;;;17.00;1.00;;;;;;4814076;29;38567;-87
2023/06/04 06:20:43;;;;;;;3.28;1.30;;;17.10;1.00;;;;;;4814450;29;36608;-87
2023/06/04 06:23:12;;;;;;;3.33;1.30;;;17.20;99.90;;;;;;4795583;29;35844;-83
2023/06/04 06:25:40;;;;;;;3.20;1.40;;;17.20;99.90;;;;;;4797321;29;38548;-85
2023/06/04 06:28:07;;;;;;;3.22;1.13;;;17.30;99.90;;;;;;4811368;29;39247;-85
2023/06/04 06:30:33;;;;;;;3.13;1.27;;;17.30;99.90;;;;;;4795226;29;37100;-84
2023/06/04 06:32:59;;;;;;;2.58;1.02;;;17.30;99.90;;;;;;4811276;29;37709;-85
2023/06/04 06:35:25;;;;;;;2.45;1.17;;;17.40;99.90;;;;;;4810948;29;38115;-85
2023/06/04 06:37:51;;;;;;;2.50;1.23;;;17.50;99.90;;;;;;4812595;29;38108;-85
2023/06/04 06:40:19;;;;;;;2.67;1.20;;;17.70;99.90;;;;;;4811449;29;39194;-85
2023/06/04 06:42:50;;;;;;;3.92;1.30;;;17.80;99.90;;;;;;4802349;29;38804;-83
2023/06/04 06:45:16;;;;;;;5.18;1.65;;;17.80;99.90;;;;;;4805309;29;38703;-83
2023/06/04 06:47:43;;;;;;;4.05;1.20;;;18.00;99.90;;;;;;4818186;29;38656;-81
2023/06/04 06:50:10;;;;;;;4.78;1.20;;;18.00;52.20;;;;;;4815271;29;38182;-83
2023/06/04 06:52:37;;;;;;;2.53;1.50;;;18.20;4.40;;;;;;4810541;29;37601;-84
2023/06/04 06:55:06;;;;;;;6.60;1.23;;;18.10;1.00;;;;;;4813282;29;37876;-83
2023/06/04 06:57:35;;;;;;;5.22;1.42;;;18.30;9.90;;;;;;4813885;29;47955;-83
2023/06/04 07:00:01;;;;;;;3.20;1.17;;;18.40;1.00;;;;;;4800541;29;35662;-83
2023/06/04 07:02:28;;;;;;;4.97;1.25;;;18.40;1.00;;;;;;4812437;29;37347;-82
2023/06/04 07:04:55;;;;;;;3.20;1.25;;;18.50;1.00;;;;;;4797675;29;39126;-83
2023/06/04 07:07:21;;;;;;;4.00;1.35;;;18.60;1.00;;;;;;4812081;29;37722;-83
2023/06/04 07:09:47;;;;;;;4.75;1.15;;;18.70;1.00;;;;;;4812381;29;38686;-80
2023/06/04 07:12:13;;;;;;;5.15;1.60;;;18.90;1.00;;;;;;4813392;29;37962;-82
2023/06/04 07:14:39;;;;;;;3.10;1.40;;;18.90;1.00;;;;;;4799623;29;38621;-81
2023/06/04 07:17:05;;;;;;;4.18;1.90;;;19.00;1.00;;;;;;4813717;29;38021;-82
2023/06/04 07:19:31;;;;;;;2.20;1.17;;;19.20;1.00;;;;;;4796423;29;37448;-82
2023/06/04 07:21:57;;;;;;;3.83;1.40;;;19.40;1.00;;;;;;4794616;29;35966;-82
2023/06/04 07:24:24;;;;;;;5.03;1.40;;;19.70;1.00;;;;;;4798260;29;38956;-82
2023/06/04 07:26:50;;;;;;;5.60;1.50;;;19.80;1.00;;;;;;4795196;29;37715;-81
2023/06/04 07:29:16;;;;;;;6.35;1.42;;;19.80;1.00;;;;;;4794182;29;38564;-76
2023/06/04 07:31:42;;;;;;;2.95;1.63;;;19.80;1.00;;;;;;4815220;29;37106;-80
2023/06/04 07:34:08;;;;;;;4.82;1.27;;;20.00;1.00;;;;;;4794520;29;39488;-80
2023/06/04 07:36:34;;;;;;;4.80;1.50;;;19.60;1.00;;;;;;4810934;29;37067;-80
2023/06/04 07:39:00;;;;;;;2.10;1.23;;;20.00;1.00;;;;;;4811304;29;36958;-80
2023/06/04 07:41:26;;;;;;;7.93;1.73;;;20.10;1.00;;;;;;4795170;29;36167;-80
2023/06/04 07:43:52;;;;;;;3.72;1.60;;;20.00;1.00;;;;;;4797211;29;37690;-81
2023/06/04 07:46:19;;;;;;;5.20;1.48;;;19.90;1.00;;;;;;4797037;29;40020;-80
2023/06/04 07:48:45;;;;;;;3.92;1.30;;;19.80;1.00;;;;;;4809184;29;38879;-80
2023/06/04 07:51:13;;;;;;;3.88;1.55;;;20.00;1.00;;;;;;4808895;29;36965;-80
2023/06/04 07:53:40;;;;;;;3.00;1.52;;;20.20;1.00;;;;;;4799265;29;37648;-80
2023/06/04 07:56:07;;;;;;;2.83;1.25;;;20.30;1.00;;;;;;4811356;29;38829;-81
2023/06/04 07:58:33;;;;;;;3.90;1.40;;;20.20;1.00;;;;;;4811293;29;38897;-81
2023/06/04 08:00:59;;;;;;;3.10;1.17;;;20.20;1.00;;;;;;4794605;29;37654;-78
2023/06/04 08:03:25;;;;;;;6.50;1.63;;;20.20;1.00;;;;;;4775854;29;38013;-79
2023/06/04 08:05:51;;;;;;;2.83;1.35;;;20.40;1.00;;;;;;4813879;29;38938;-79
2023/06/04 08:08:17;;;;;;;3.05;1.40;;;20.60;1.00;;;;;;4811040;29;37115;-80
2023/06/04 08:10:43;;;;;;;3.50;1.30;;;20.70;1.00;;;;;;4800016;29;36446;-80
2023/06/04 08:13:10;;;;;;;3.40;1.00;;;20.50;1.00;;;;;;4811372;29;37538;-79
2023/06/04 08:15:36;;;;;;;4.32;1.70;;;20.60;1.00;;;;;;4784792;29;38027;-80
2023/06/04 08:18:02;;;;;;;4.40;1.40;;;20.80;1.00;;;;;;4816229;29;37716;-79
2023/06/04 08:20:28;;;;;;;1.98;1.20;;;20.80;1.00;;;;;;4814116;29;37459;-78
2023/06/04 08:22:55;;;;;;;2.20;0.93;;;20.90;1.00;;;;;;4793231;29;20051;-78
2023/06/04 08:25:21;;;;;;;1.90;1.10;;;21.20;1.00;;;;;;4813330;29;37422;-78
2023/06/04 08:27:47;;;;;;;2.65;1.30;;;21.40;1.00;;;;;;4809895;29;37170;-79
2023/06/04 08:30:14;;;;;;;4.88;1.33;;;21.40;99.90;;;;;;4810923;29;37297;-78
2023/06/04 08:32:40;;;;;;;5.63;1.00;;;21.50;1.00;;;;;;4802774;29;37987;-80
2023/06/04 08:35:07;;;;;;;3.20;1.23;;;21.60;99.90;;;;;;4793269;29;37718;-83
2023/06/04 08:37:33;;;;;;;2.17;1.05;;;21.70;99.90;;;;;;4795080;29;37286;-80
2023/06/04 08:40:00;;;;;;;3.92;1.42;;;21.70;99.90;;;;;;4805192;29;37989;-81
2023/06/04 08:42:37;;;;;;;5.03;1.38;;;21.50;99.90;;;;;;4799982;29;38716;-82
2023/06/04 08:45:03;;;;;;;2.67;0.95;;;21.70;99.90;;;;;;4790465;29;38340;-82
2023/06/04 08:47:34;;;;;;;6.03;1.38;;;21.80;99.90;;;;;;4797573;29;37398;-82
2023/06/04 08:50:02;;;;;;;3.58;1.45;;;21.90;99.90;;;;;;4815266;29;37116;-82
2023/06/04 08:52:28;;;;;;;3.50;1.52;;;22.00;99.90;;;;;;4791466;29;38208;-82
2023/06/04 08:54:54;;;;;;;3.47;1.23;;;22.00;99.90;;;;;;4812270;29;38665;-81
2023/06/04 08:57:21;;;;;;;2.33;1.30;;;22.10;99.90;;;;;;4796742;29;36470;-80
2023/06/04 08:59:47;;;;;;;3.65;0.98;;;22.40;99.90;;;;;;4814037;29;37620;-82
2023/06/04 09:02:17;;;;;;;4.25;1.15;;;22.50;99.90;;;;;;4812237;29;38350;-79
2023/06/04 09:04:45;;;;;;;4.13;1.30;;;22.70;99.90;;;;;;4804162;29;38809;-79
2023/06/04 09:07:13;;;;;;;2.40;1.08;;;22.80;99.90;;;;;;4774951;29;38532;-78
2023/06/04 09:09:40;;;;;;;4.15;1.23;;;22.70;99.90;;;;;;4794637;29;37531;-78
2023/06/04 09:12:11;;;;;;;3.33;1.23;;;22.80;99.90;;;;;;4799209;29;37594;-78
2023/06/04 09:14:37;;;;;;;3.35;1.00;;;22.70;99.90;;;;;;4808507;29;37517;-77
2023/06/04 09:17:06;;;;;;;3.70;1.05;;;22.80;99.90;;;;;;4811089;29;39090;-82
2023/06/04 09:19:33;;;;;;;3.78;1.02;;;22.90;99.90;;;;;;4797623;29;37044;-81
2023/06/04 09:22:02;;;;;;;2.85;1.05;;;23.10;99.90;;;;;;4815331;29;38353;-81
2023/06/04 09:24:43;;;;;;;7.55;1.35;;;23.30;99.90;;;;;;4797824;29;47435;-80
2023/06/04 09:27:11;;;;;;;2.78;1.23;;;23.60;99.90;;;;;;4810018;29;37109;-80
2023/06/04 09:29:37;;;;;;;3.08;1.20;;;23.40;99.90;;;;;;4809069;29;36767;-80
2023/06/04 09:32:04;;;;;;;3.30;1.25;;;23.20;99.90;;;;;;4816812;29;39972;-80
2023/06/04 09:34:30;;;;;;;3.25;1.20;;;23.20;99.90;;;;;;4818387;29;38083;-80
2023/06/04 09:36:58;;;;;;;2.75;1.08;;;23.40;99.90;;;;;;4793334;29;37693;-79
2023/06/04 09:39:24;;;;;;;3.22;1.02;;;23.90;99.90;;;;;;4808341;29;36291;-81
2023/06/04 09:42:00;;;;;;;1.42;1.00;;;23.90;99.90;;;;;;4796638;29;37509;-81
2023/06/04 09:44:27;;;;;;;8.20;1.58;;;23.90;99.90;;;;;;4809386;29;36991;-79
2023/06/04 09:46:57;;;;;;;3.53;1.40;;;23.60;99.90;;;;;;4806602;29;38804;-78
2023/06/04 09:49:24;;;;;;;4.20;1.30;;;23.50;99.90;;;;;;4812476;29;37611;-79
2023/06/04 09:51:50;;;;;;;4.63;1.52;;;23.40;99.90;;;;;;4798531;29;36035;-81
2023/06/04 09:54:17;;;;;;;3.65;1.58;;;23.50;99.90;;;;;;4809680;29;39675;-80
2023/06/04 09:56:43;;;;;;;3.22;1.40;;;24.00;99.90;;;;;;4806866;29;37996;-80
2023/06/04 09:59:10;;;;;;;4.85;1.17;;;24.20;99.90;;;;;;4811548;29;38672;-80
2023/06/04 10:01:42;;;;;;;3.83;1.58;;;24.10;99.90;;;;;;4814016;29;38650;-80
2023/06/04 10:04:11;;;;;;;2.88;1.48;;;23.90;99.90;;;;;;4809571;29;37333;-81
2023/06/04 10:06:39;;;;;;;3.50;1.15;;;23.90;99.90;;;;;;4813657;29;37502;-81
2023/06/04 10:09:09;;;;;;;4.22;1.50;;;24.00;99.90;;;;;;4798171;29;36184;-81
2023/06/04 10:11:41;;;;;;;3.47;1.35;;;24.20;99.90;;;;;;4813989;29;38177;-79
2023/06/04 10:14:22;;;;;;;3.35;1.30;;;24.50;99.90;;;;;;4792356;29;38657;-81
2023/06/04 10:16:50;;;;;;;3.17;1.65;;;24.50;99.90;;;;;;4796633;29;37278;-81
2023/06/04 10:19:18;;;;;;;5.35;1.52;;;24.50;99.90;;;;;;4814249;29;35880;-81
2023/06/04 10:21:45;;;;;;;2.92;1.65;;;24.50;99.90;;;;;;4811304;29;37601;-80
2023/06/04 10:24:14;;;;;;;3.83;1.23;;;24.50;99.90;;;;;;4794327;29;37707;-80
2023/06/04 10:26:41;;;;;;;2.45;1.60;;;24.40;99.90;;;;;;4794119;29;36764;-81
2023/06/04 10:29:08;;;;;;;3.05;1.38;;;24.20;88.20;;;;;;4791084;29;34081;-80
2023/06/04 10:31:36;;;;;;;2.47;1.52;;;24.30;92.20;;;;;;4796253;29;37451;-80
2023/06/04 10:34:03;;;;;;;7.15;1.65;;;24.40;86.00;;;;;;4800379;29;37206;-80
2023/06/04 10:36:29;;;;;;;3.85;1.48;;;24.70;88.60;;;;;;4794704;29;39200;-80
2023/06/04 10:38:55;;;;;;;3.83;1.42;;;24.60;71.40;;;;;;4807196;29;36344;-79
2023/06/04 10:41:23;;;;;;;3.47;1.35;;;24.70;90.80;;;;;;4786170;29;37996;-81
2023/06/04 10:43:51;;;;;;;5.63;1.15;;;25.10;85.60;;;;;;4809064;29;39299;-80
2023/06/04 10:46:20;;;;;;;3.50;1.25;;;25.00;41.70;;;;;;4811752;29;37964;-81
2023/06/04 10:48:48;;;;;;;3.47;1.23;;;25.00;27.70;;;;;;4806847;29;37366;-81
2023/06/04 10:51:30;;;;;;;5.50;1.23;;;24.70;58.40;;;;;;4793772;29;36665;-81
2023/06/04 10:54:01;;;;;;;2.67;1.08;;;25.00;29.50;;;;;;4810470;29;37164;-81
2023/06/04 10:56:28;;;;;;;7.20;1.27;;;25.20;29.50;;;;;;4812358;29;48016;-81
2023/06/04 10:58:54;;;;;;;3.70;1.15;;;25.40;20.80;;;;;;4812958;29;35897;-81
2023/06/04 11:01:28;;;;;;;3.80;1.35;;;25.30;22.40;;;;;;4794206;29;39319;-81
2023/06/04 11:03:57;;;;;;;3.88;1.13;;;24.90;10.60;;;;;;4811659;29;39241;-81
2023/06/04 11:06:27;;;;;;;1.98;1.08;;;25.00;20.70;;;;;;4795099;29;37140;-80
2023/06/04 11:09:07;;;;;;;4.78;1.60;;;25.30;14.40;;;;;;4811287;29;36075;-80
2023/06/04 11:11:33;;;;;;;3.85;1.00;;;25.00;6.80;;;;;;4774255;29;46797;-81
2023/06/04 11:14:11;;;;;;;2.97;1.30;;;24.70;1.00;;;;;;4810053;29;37447;-80
2023/06/04 11:16:38;;;;;;;7.95;1.30;;;25.00;1.00;;;;;;4810014;29;48581;-81
2023/06/04 11:19:04;;;;;;;1.67;1.00;;;24.80;1.00;;;;;;4794156;29;36468;-81
2023/06/04 11:21:33;;;;;;;4.03;1.30;;;25.00;1.00;;;;;;4795398;29;38039;-80
2023/06/04 11:24:00;;;;;;;4.07;1.13;;;24.90;1.00;;;;;;4790343;29;38196;-80
2023/06/04 11:26:35;;;;;;;3.15;1.40;;;24.70;1.00;;;;;;4809590;29;39674;-81
2023/06/04 11:29:06;;;;;;;2.63;1.30;;;25.10;1.00;;;;;;4817638;29;37344;-81
2023/06/04 11:31:47;;;;;;;6.90;1.75;;;25.20;1.00;;;;;;4795489;29;37782;-81
2023/06/04 11:34:24;;;;;;;2.63;1.40;;;25.40;1.00;;;;;;4797778;29;37661;-80
2023/06/04 11:36:52;;;;;;;3.22;1.30;;;25.00;1.00;;;;;;4817205;29;38066;-80
2023/06/04 11:39:20;;;;;;;4.78;1.35;;;24.80;1.00;;;;;;4801370;29;36004;-80
2023/06/04 11:41:47;;;;;;;3.35;1.63;;;24.90;1.00;;;;;;4813969;29;39495;-80
2023/06/04 11:44:14;;;;;;;2.63;1.20;;;25.20;1.00;;;;;;4805344;29;40838;-81
2023/06/04 11:46:43;;;;;;;2.28;1.35;;;25.30;1.00;;;;;;4810111;29;39034;-80
2023/06/04 11:49:14;;;;;;;2.78;1.85;;;25.20;1.00;;;;;;4801704;29;35621;-79
2023/06/04 11:51:52;;;;;;;5.70;1.63;;;25.00;1.00;;;;;;4812092;29;37904;-80
2023/06/04 11:54:21;;;;;;;4.25;1.55;;;25.00;1.00;;;;;;4812151;29;37079;-80
2023/06/04 11:56:51;;;;;;;4.20;1.30;;;25.40;1.00;;;;;;4813975;29;37251;-80
2023/06/04 11:59:18;;;;;;;3.97;1.30;;;25.90;1.00;;;;;;4791807;29;37649;-80
2023/06/04 12:01:46;;;;;;;2.45;1.23;;;26.00;1.00;;;;;;4799167;29;37624;-79
2023/06/04 12:04:36;;;;;;;2.80;1.05;;;26.00;1.00;;;;;;4811145;29;39939;-79
2023/06/04 12:07:05;;;;;;;2.63;1.38;;;26.00;1.00;;;;;;4808684;29;37571;-81
2023/06/04 12:09:34;;;;;;;4.43;1.20;;;25.80;1.00;;;;;;4796455;29;37990;-81
2023/06/04 12:12:06;;;;;;;4.47;1.30;;;26.00;1.00;;;;;;4781459;29;37939;-80
2023/06/04 12:14:32;;;;;;;2.78;1.27;;;25.80;1.00;;;;;;4811665;29;47502;-80
2023/06/04 12:16:59;;;;;;;3.05;1.58;;;25.70;1.00;;;;;;4811372;29;38153;-80
2023/06/04 12:19:26;;;;;;;5.40;1.42;;;25.80;1.00;;;;;;4807315;29;36435;-82
2023/06/04 12:22:05;;;;;;;3.33;1.38;;;25.30;1.00;;;;;;4810083;29;39641;-80
2023/06/04 12:24:37;;;;;;;5.18;1.58;;;24.70;1.00;;;;;;4816898;29;48771;-80
2023/06/04 12:27:05;;;;;;;5.22;1.48;;;25.10;1.00;;;;;;4808156;29;38226;-80
2023/06/04 12:29:31;;;;;;;2.97;1.30;;;25.30;1.00;;;;;;4804605;29;35554;-81
2023/06/04 12:32:08;;;;;;;3.22;1.52;;;25.50;1.00;;;;;;4797614;29;39965;-78
2023/06/04 12:34:35;;;;;;;3.08;1.35;;;25.60;1.00;;;;;;4803199;29;47341;-80
2023/06/04 12:37:03;;;;;;;2.97;1.55;;;25.60;1.00;;;;;;4811521;29;39227;-81
2023/06/04 12:39:32;;;;;;;5.43;1.13;;;25.50;1.00;;;;;;4799858;29;49088;-82
2023/06/04 12:41:58;;;;;;;3.00;1.27;;;25.50;1.00;;;;;;4792041;29;37839;-81
2023/06/04 12:44:30;;;;;;;5.50;1.70;;;25.80;1.00;;;;;;4812950;29;37705;-81
2023/06/04 12:46:57;;;;;;;2.63;1.30;;;25.90;1.00;;;;;;4811562;29;37794;-81
2023/06/04 12:49:23;;;;;;;2.70;1.40;;;25.70;1.00;;;;;;4799905;29;36396;-80
2023/06/04 12:51:49;;;;;;;2.38;1.00;;;25.60;1.00;;;;;;4785303;29;39598;-80
2023/06/04 12:54:15;;;;;;;2.90;1.40;;;25.70;1.00;;;;;;4786519;29;37631;-77
2023/06/04 12:56:43;;;;;;;4.22;1.50;;;25.60;1.00;;;;;;4804425;29;37300;-82
2023/06/04 12:59:10;;;;;;;3.42;1.42;;;25.60;1.00;;;;;;4807356;29;37815;-84